sensor_id;sensor_type;location;lat;lon;timestamp;P1;durP1;ratioP1;P2;durP2;ratioP2
52708;SDS011;38606;52.986;6.980;2023-05-07T00:00:02;25.65;;;18.02;;
52708;SDS011;38606;52.986;6.980;2023-05-07T00:02:32;24.33;;;19.20;;
52708;SDS011;38606;52.986;6.980;2023-05-07T00:04:58;27.10;;;18.75;;
52708;SDS011;38606;52.986;6.980;2023-05-07T00:07:24;29.10;;;18.55;;
52708;SDS011;38606;52.986;6.980;2023-05-07T00:09:50;24.42;;;18.00;;
52708;SDS011;38606;52.986;6.980;2023-05-07T00:12:16;28.98;;;18.15;;
52708;SDS011;38606;52.986;6.980;2023-05-07T00:14:41;26.48;;;18.80;;
52708;SDS011;38606;52.986;6.980;2023-05-07T00:17:07;25.35;;;17.88;;
52708;SDS011;38606;52.986;6.980;2023-05-07T00:19:33;25.00;;;18.48;;
52708;SDS011;38606;52.986;6.980;2023-05-07T00:21:58;27.65;;;18.95;;
52708;SDS011;38606;52.986;6.980;2023-05-07T00:24:24;28.27;;;18.88;;
52708;SDS011;38606;52.986;6.980;2023-05-07T00:26:50;25.58;;;18.60;;
52708;SDS011;38606;52.986;6.980;2023-05-07T00:29:16;26.73;;;19.40;;
52708;SDS011;38606;52.986;6.980;2023-05-07T00:31:41;25.67;;;19.38;;
52708;SDS011;38606;52.986;6.980;2023-05-07T00:34:07;26.13;;;19.10;;
52708;SDS011;38606;52.986;6.980;2023-05-07T00:36:33;26.02;;;18.33;;
52708;SDS011;38606;52.986;6.980;2023-05-07T00:38:59;26.13;;;19.10;;
52708;SDS011;38606;52.986;6.980;2023-05-07T00:41:27;26.33;;;19.45;;
52708;SDS011;38606;52.986;6.980;2023-05-07T00:43:52;26.08;;;19.23;;
52708;SDS011;38606;52.986;6.980;2023-05-07T00:46:19;26.05;;;18.85;;
52708;SDS011;38606;52.986;6.980;2023-05-07T00:48:46;27.20;;;20.02;;
52708;SDS011;38606;52.986;6.980;2023-05-07T00:51:12;28.88;;;21.02;;
52708;SDS011;38606;52.986;6.980;2023-05-07T00:53:38;29.67;;;20.95;;
52708;SDS011;38606;52.986;6.980;2023-05-07T00:56:04;31.08;;;20.02;;
52708;SDS011;38606;52.986;6.980;2023-05-07T00:58:31;29.88;;;21.20;;
52708;SDS011;38606;52.986;6.980;2023-05-07T01:00:58;28.98;;;20.17;;
52708;SDS011;38606;52.986;6.980;2023-05-07T01:03:24;29.27;;;19.67;;
52708;SDS011;38606;52.986;6.980;2023-05-07T01:05:50;28.95;;;21.67;;
52708;SDS011;38606;52.986;6.980;2023-05-07T01:08:18;30.42;;;21.73;;
52708;SDS011;38606;52.986;6.980;2023-05-07T01:10:45;29.70;;;21.52;;
52708;SDS011;38606;52.986;6.980;2023-05-07T01:13:12;30.77;;;21.58;;
52708;SDS011;38606;52.986;6.980;2023-05-07T01:15:39;29.48;;;21.33;;
52708;SDS011;38606;52.986;6.980;2023-05-07T01:18:06;35.30;;;23.30;;
52708;SDS011;38606;52.986;6.980;2023-05-07T01:20:32;28.70;;;22.20;;
52708;SDS011;38606;52.986;6.980;2023-05-07T01:22:58;30.60;;;22.10;;
52708;SDS011;38606;52.986;6.980;2023-05-07T01:25:26;33.25;;;22.33;;
52708;SDS011;38606;52.986;6.980;2023-05-07T01:27:52;33.25;;;23.85;;
52708;SDS011;38606;52.986;6.980;2023-05-07T01:30:18;32.03;;;23.20;;
52708;SDS011;38606;52.986;6.980;2023-05-07T01:32:50;36.08;;;25.20;;
52708;SDS011;38606;52.986;6.980;2023-05-07T01:35:19;36.40;;;24.98;;
52708;SDS011;38606;52.986;6.980;2023-05-07T01:37:47;35.20;;;24.50;;
52708;SDS011;38606;52.986;6.980;2023-05-07T01:40:14;38.20;;;24.42;;
52708;SDS011;38606;52.986;6.980;2023-05-07T01:42:41;36.10;;;25.17;;
52708;SDS011;38606;52.986;6.980;2023-05-07T01:45:08;37.15;;;25.23;;
52708;SDS011;38606;52.986;6.980;2023-05-07T01:47:35;41.47;;;25.88;;
52708;SDS011;38606;52.986;6.980;2023-05-07T01:50:02;44.45;;;27.77;;
52708;SDS011;38606;52.986;6.980;2023-05-07T01:52:30;38.13;;;26.23;;
52708;SDS011;38606;52.986;6.980;2023-05-07T01:54:56;42.28;;;26.85;;
52708;SDS011;38606;52.986;6.980;2023-05-07T01:57:22;43.72;;;27.08;;
52708;SDS011;38606;52.986;6.980;2023-05-07T01:59:48;41.65;;;27.55;;
52708;SDS011;38606;52.986;6.980;2023-05-07T02:02:13;44.05;;;26.75;;
52708;SDS011;38606;52.986;6.980;2023-05-07T02:04:39;55.65;;;30.00;;
52708;SDS011;38606;52.986;6.980;2023-05-07T02:07:05;46.70;;;28.35;;
52708;SDS011;38606;52.986;6.980;2023-05-07T02:09:30;44.47;;;28.75;;
52708;SDS011;38606;52.986;6.980;2023-05-07T02:11:56;46.85;;;29.02;;
52708;SDS011;38606;52.986;6.980;2023-05-07T02:14:22;46.00;;;30.30;;
52708;SDS011;38606;52.986;6.980;2023-05-07T02:16:48;42.60;;;28.75;;
52708;SDS011;38606;52.986;6.980;2023-05-07T02:19:13;49.75;;;29.80;;
52708;SDS011;38606;52.986;6.980;2023-05-07T02:21:39;51.30;;;29.52;;
52708;SDS011;38606;52.986;6.980;2023-05-07T02:24:05;46.72;;;29.52;;
52708;SDS011;38606;52.986;6.980;2023-05-07T02:26:31;48.30;;;29.30;;
52708;SDS011;38606;52.986;6.980;2023-05-07T02:28:56;54.60;;;31.33;;
52708;SDS011;38606;52.986;6.980;2023-05-07T02:31:22;52.03;;;31.85;;
52708;SDS011;38606;52.986;6.980;2023-05-07T02:33:48;54.30;;;31.95;;
52708;SDS011;38606;52.986;6.980;2023-05-07T02:36:13;53.30;;;31.73;;
52708;SDS011;38606;52.986;6.980;2023-05-07T02:38:39;51.10;;;32.35;;
52708;SDS011;38606;52.986;6.980;2023-05-07T02:41:05;57.05;;;33.03;;
52708;SDS011;38606;52.986;6.980;2023-05-07T02:43:30;49.13;;;30.75;;
52708;SDS011;38606;52.986;6.980;2023-05-07T02:46:03;51.25;;;30.75;;
52708;SDS011;38606;52.986;6.980;2023-05-07T02:48:33;55.80;;;31.83;;
52708;SDS011;38606;52.986;6.980;2023-05-07T02:50:59;52.38;;;31.30;;
52708;SDS011;38606;52.986;6.980;2023-05-07T02:53:25;49.50;;;29.95;;
52708;SDS011;38606;52.986;6.980;2023-05-07T02:55:52;53.83;;;32.63;;
52708;SDS011;38606;52.986;6.980;2023-05-07T02:58:19;52.25;;;32.67;;
52708;SDS011;38606;52.986;6.980;2023-05-07T03:00:45;47.45;;;30.55;;
52708;SDS011;38606;52.986;6.980;2023-05-07T03:03:11;49.58;;;30.88;;
52708;SDS011;38606;52.986;6.980;2023-05-07T03:05:36;51.78;;;31.02;;
52708;SDS011;38606;52.986;6.980;2023-05-07T03:08:02;48.00;;;29.88;;
52708;SDS011;38606;52.986;6.980;2023-05-07T03:10:29;48.38;;;30.70;;
52708;SDS011;38606;52.986;6.980;2023-05-07T03:12:55;50.58;;;29.88;;
52708;SDS011;38606;52.986;6.980;2023-05-07T03:15:21;54.63;;;32.70;;
52708;SDS011;38606;52.986;6.980;2023-05-07T03:17:47;47.38;;;30.33;;
52708;SDS011;38606;52.986;6.980;2023-05-07T03:20:13;49.83;;;31.10;;
52708;SDS011;38606;52.986;6.980;2023-05-07T03:22:39;49.17;;;31.00;;
52708;SDS011;38606;52.986;6.980;2023-05-07T03:25:05;49.70;;;30.27;;
52708;SDS011;38606;52.986;6.980;2023-05-07T03:27:32;50.25;;;31.35;;
52708;SDS011;38606;52.986;6.980;2023-05-07T03:29:58;47.60;;;30.38;;
52708;SDS011;38606;52.986;6.980;2023-05-07T03:32:23;49.40;;;30.48;;
52708;SDS011;38606;52.986;6.980;2023-05-07T03:34:49;46.80;;;29.95;;
52708;SDS011;38606;52.986;6.980;2023-05-07T03:37:15;45.70;;;29.73;;
52708;SDS011;38606;52.986;6.980;2023-05-07T03:39:41;47.75;;;30.25;;
52708;SDS011;38606;52.986;6.980;2023-05-07T03:42:07;44.25;;;29.40;;
52708;SDS011;38606;52.986;6.980;2023-05-07T03:44:32;42.15;;;28.80;;
52708;SDS011;38606;52.986;6.980;2023-05-07T03:46:58;44.20;;;28.20;;
52708;SDS011;38606;52.986;6.980;2023-05-07T03:49:24;40.67;;;27.20;;
52708;SDS011;38606;52.986;6.980;2023-05-07T03:51:49;44.67;;;28.75;;
52708;SDS011;38606;52.986;6.980;2023-05-07T03:54:15;39.47;;;26.55;;
52708;SDS011;38606;52.986;6.980;2023-05-07T03:56:41;44.63;;;28.60;;
52708;SDS011;38606;52.986;6.980;2023-05-07T03:59:07;42.47;;;27.95;;
52708;SDS011;38606;52.986;6.980;2023-05-07T04:01:33;42.80;;;26.48;;
52708;SDS011;38606;52.986;6.980;2023-05-07T04:03:58;40.22;;;27.30;;
52708;SDS011;38606;52.986;6.980;2023-05-07T04:06:24;42.30;;;26.83;;
52708;SDS011;38606;52.986;6.980;2023-05-07T04:08:50;37.30;;;26.17;;
52708;SDS011;38606;52.986;6.980;2023-05-07T04:11:16;41.78;;;26.17;;
52708;SDS011;38606;52.986;6.980;2023-05-07T04:13:41;39.38;;;26.35;;
52708;SDS011;38606;52.986;6.980;2023-05-07T04:16:07;41.53;;;26.38;;
52708;SDS011;38606;52.986;6.980;2023-05-07T04:18:33;41.22;;;27.23;;
52708;SDS011;38606;52.986;6.980;2023-05-07T04:20:59;43.60;;;27.52;;
52708;SDS011;38606;52.986;6.980;2023-05-07T04:23:24;40.20;;;26.77;;
52708;SDS011;38606;52.986;6.980;2023-05-07T04:25:50;40.78;;;26.05;;
52708;SDS011;38606;52.986;6.980;2023-05-07T04:28:16;34.83;;;25.13;;
52708;SDS011;38606;52.986;6.980;2023-05-07T04:30:41;39.50;;;23.73;;
52708;SDS011;38606;52.986;6.980;2023-05-07T04:33:07;36.50;;;24.00;;
52708;SDS011;38606;52.986;6.980;2023-05-07T04:35:33;34.25;;;24.38;;
52708;SDS011;38606;52.986;6.980;2023-05-07T04:37:59;36.05;;;24.38;;
52708;SDS011;38606;52.986;6.980;2023-05-07T04:40:25;34.97;;;24.98;;
52708;SDS011;38606;52.986;6.980;2023-05-07T04:42:51;35.30;;;25.48;;
52708;SDS011;38606;52.986;6.980;2023-05-07T04:45:18;32.85;;;23.98;;
52708;SDS011;38606;52.986;6.980;2023-05-07T04:47:43;39.28;;;24.80;;
52708;SDS011;38606;52.986;6.980;2023-05-07T04:50:09;34.10;;;24.23;;
52708;SDS011;38606;52.986;6.980;2023-05-07T04:52:35;33.03;;;23.08;;
52708;SDS011;38606;52.986;6.980;2023-05-07T04:55:01;35.95;;;24.40;;
52708;SDS011;38606;52.986;6.980;2023-05-07T04:57:27;30.98;;;22.20;;
52708;SDS011;38606;52.986;6.980;2023-05-07T04:59:53;31.33;;;22.33;;
52708;SDS011;38606;52.986;6.980;2023-05-07T05:02:19;34.20;;;24.13;;
52708;SDS011;38606;52.986;6.980;2023-05-07T05:04:45;35.88;;;24.02;;
52708;SDS011;38606;52.986;6.980;2023-05-07T05:07:11;34.65;;;24.63;;
52708;SDS011;38606;52.986;6.980;2023-05-07T05:09:36;31.02;;;23.35;;
52708;SDS011;38606;52.986;6.980;2023-05-07T05:12:02;33.58;;;23.42;;
52708;SDS011;38606;52.986;6.980;2023-05-07T05:14:28;32.60;;;23.70;;
52708;SDS011;38606;52.986;6.980;2023-05-07T05:16:54;31.23;;;22.80;;
52708;SDS011;38606;52.986;6.980;2023-05-07T05:19:20;28.23;;;21.83;;
52708;SDS011;38606;52.986;6.980;2023-05-07T05:21:46;33.95;;;22.95;;
52708;SDS011;38606;52.986;6.980;2023-05-07T05:24:12;31.33;;;23.70;;
52708;SDS011;38606;52.986;6.980;2023-05-07T05:26:37;33.25;;;22.92;;
52708;SDS011;38606;52.986;6.980;2023-05-07T05:29:03;29.25;;;21.65;;
52708;SDS011;38606;52.986;6.980;2023-05-07T05:31:29;30.88;;;22.45;;
52708;SDS011;38606;52.986;6.980;2023-05-07T05:33:55;28.48;;;20.90;;
52708;SDS011;38606;52.986;6.980;2023-05-07T05:36:20;31.00;;;21.90;;
52708;SDS011;38606;52.986;6.980;2023-05-07T05:38:46;35.30;;;24.02;;
52708;SDS011;38606;52.986;6.980;2023-05-07T05:41:12;29.23;;;22.58;;
52708;SDS011;38606;52.986;6.980;2023-05-07T05:43:38;33.20;;;22.85;;
52708;SDS011;38606;52.986;6.980;2023-05-07T05:46:03;29.80;;;21.27;;
52708;SDS011;38606;52.986;6.980;2023-05-07T05:48:29;32.97;;;22.83;;
52708;SDS011;38606;52.986;6.980;2023-05-07T05:50:55;29.88;;;21.50;;
52708;SDS011;38606;52.986;6.980;2023-05-07T05:53:21;31.80;;;22.83;;
52708;SDS011;38606;52.986;6.980;2023-05-07T05:55:46;33.03;;;22.60;;
52708;SDS011;38606;52.986;6.980;2023-05-07T05:58:12;28.40;;;21.33;;
52708;SDS011;38606;52.986;6.980;2023-05-07T06:00:40;30.50;;;22.05;;
52708;SDS011;38606;52.986;6.980;2023-05-07T06:03:05;30.58;;;22.38;;
52708;SDS011;38606;52.986;6.980;2023-05-07T06:05:31;34.67;;;23.50;;
52708;SDS011;38606;52.986;6.980;2023-05-07T06:07:57;28.40;;;21.20;;
52708;SDS011;38606;52.986;6.980;2023-05-07T06:10:23;30.55;;;22.90;;
52708;SDS011;38606;52.986;6.980;2023-05-07T06:12:49;30.70;;;21.27;;
52708;SDS011;38606;52.986;6.980;2023-05-07T06:15:15;28.45;;;21.05;;
52708;SDS011;38606;52.986;6.980;2023-05-07T06:17:40;31.23;;;22.33;;
52708;SDS011;38606;52.986;6.980;2023-05-07T06:20:06;31.20;;;22.60;;
52708;SDS011;38606;52.986;6.980;2023-05-07T06:22:32;31.08;;;21.00;;
52708;SDS011;38606;52.986;6.980;2023-05-07T06:24:58;29.40;;;21.77;;
52708;SDS011;38606;52.986;6.980;2023-05-07T06:27:24;27.90;;;21.63;;
52708;SDS011;38606;52.986;6.980;2023-05-07T06:29:50;29.88;;;21.23;;
52708;SDS011;38606;52.986;6.980;2023-05-07T06:32:15;31.38;;;22.38;;
52708;SDS011;38606;52.986;6.980;2023-05-07T06:34:42;31.40;;;21.38;;
52708;SDS011;38606;52.986;6.980;2023-05-07T06:37:08;32.92;;;24.08;;
52708;SDS011;38606;52.986;6.980;2023-05-07T06:39:33;30.73;;;22.15;;
52708;SDS011;38606;52.986;6.980;2023-05-07T06:42:00;29.50;;;21.55;;
52708;SDS011;38606;52.986;6.980;2023-05-07T06:44:26;29.65;;;21.48;;
52708;SDS011;38606;52.986;6.980;2023-05-07T06:46:52;28.38;;;21.45;;
52708;SDS011;38606;52.986;6.980;2023-05-07T06:49:18;31.88;;;21.83;;
52708;SDS011;38606;52.986;6.980;2023-05-07T06:51:46;33.28;;;23.15;;
52708;SDS011;38606;52.986;6.980;2023-05-07T06:54:12;31.50;;;22.95;;
52708;SDS011;38606;52.986;6.980;2023-05-07T06:56:37;30.95;;;22.77;;
52708;SDS011;38606;52.986;6.980;2023-05-07T06:59:03;36.35;;;22.27;;
52708;SDS011;38606;52.986;6.980;2023-05-07T07:01:29;33.20;;;23.20;;
52708;SDS011;38606;52.986;6.980;2023-05-07T07:03:55;35.20;;;23.55;;
52708;SDS011;38606;52.986;6.980;2023-05-07T07:06:20;32.97;;;23.70;;
52708;SDS011;38606;52.986;6.980;2023-05-07T07:08:46;35.80;;;23.92;;
52708;SDS011;38606;52.986;6.980;2023-05-07T07:11:12;33.78;;;23.58;;
52708;SDS011;38606;52.986;6.980;2023-05-07T07:13:38;33.53;;;24.10;;
52708;SDS011;38606;52.986;6.980;2023-05-07T07:16:05;33.97;;;24.23;;
52708;SDS011;38606;52.986;6.980;2023-05-07T07:18:31;32.40;;;23.65;;
52708;SDS011;38606;52.986;6.980;2023-05-07T07:20:56;32.80;;;24.23;;
52708;SDS011;38606;52.986;6.980;2023-05-07T07:23:23;31.95;;;22.63;;
52708;SDS011;38606;52.986;6.980;2023-05-07T07:25:48;35.08;;;24.88;;
52708;SDS011;38606;52.986;6.980;2023-05-07T07:28:14;33.22;;;21.88;;
52708;SDS011;38606;52.986;6.980;2023-05-07T07:30:40;31.58;;;23.65;;
52708;SDS011;38606;52.986;6.980;2023-05-07T07:33:06;34.38;;;22.90;;
52708;SDS011;38606;52.986;6.980;2023-05-07T07:35:32;30.38;;;22.85;;
52708;SDS011;38606;52.986;6.980;2023-05-07T07:37:58;31.92;;;22.20;;
52708;SDS011;38606;52.986;6.980;2023-05-07T07:40:24;32.40;;;22.67;;
52708;SDS011;38606;52.986;6.980;2023-05-07T07:42:50;34.65;;;23.55;;
52708;SDS011;38606;52.986;6.980;2023-05-07T07:45:16;30.95;;;22.35;;
52708;SDS011;38606;52.986;6.980;2023-05-07T07:47:42;31.23;;;22.45;;
52708;SDS011;38606;52.986;6.980;2023-05-07T07:50:08;29.70;;;22.60;;
52708;SDS011;38606;52.986;6.980;2023-05-07T07:52:34;30.65;;;22.00;;
52708;SDS011;38606;52.986;6.980;2023-05-07T07:55:00;32.58;;;21.50;;
52708;SDS011;38606;52.986;6.980;2023-05-07T07:57:26;33.38;;;21.58;;
52708;SDS011;38606;52.986;6.980;2023-05-07T07:59:52;27.42;;;20.30;;
52708;SDS011;38606;52.986;6.980;2023-05-07T08:02:18;27.50;;;19.95;;
52708;SDS011;38606;52.986;6.980;2023-05-07T08:04:43;30.13;;;20.88;;
52708;SDS011;38606;52.986;6.980;2023-05-07T08:07:10;26.02;;;19.42;;
52708;SDS011;38606;52.986;6.980;2023-05-07T08:09:39;26.08;;;19.63;;
52708;SDS011;38606;52.986;6.980;2023-05-07T08:12:05;26.00;;;19.63;;
52708;SDS011;38606;52.986;6.980;2023-05-07T08:14:31;25.38;;;19.65;;
52708;SDS011;38606;52.986;6.980;2023-05-07T08:16:57;25.38;;;19.75;;
52708;SDS011;38606;52.986;6.980;2023-05-07T08:19:22;27.80;;;18.73;;
52708;SDS011;38606;52.986;6.980;2023-05-07T08:21:48;27.40;;;19.63;;
52708;SDS011;38606;52.986;6.980;2023-05-07T08:24:14;27.05;;;19.02;;
52708;SDS011;38606;52.986;6.980;2023-05-07T08:26:40;23.90;;;17.98;;
52708;SDS011;38606;52.986;6.980;2023-05-07T08:29:06;25.17;;;19.45;;
52708;SDS011;38606;52.986;6.980;2023-05-07T08:31:32;25.92;;;19.02;;
52708;SDS011;38606;52.986;6.980;2023-05-07T08:33:58;26.40;;;19.15;;
52708;SDS011;38606;52.986;6.980;2023-05-07T08:36:25;24.67;;;18.83;;
52708;SDS011;38606;52.986;6.980;2023-05-07T08:38:51;24.30;;;19.00;;
52708;SDS011;38606;52.986;6.980;2023-05-07T08:41:17;22.98;;;17.27;;
52708;SDS011;38606;52.986;6.980;2023-05-07T08:43:45;23.30;;;17.58;;
52708;SDS011;38606;52.986;6.980;2023-05-07T08:46:20;25.40;;;19.02;;
52708;SDS011;38606;52.986;6.980;2023-05-07T08:48:50;24.70;;;18.60;;
52708;SDS011;38606;52.986;6.980;2023-05-07T08:51:20;23.23;;;18.10;;
52708;SDS011;38606;52.986;6.980;2023-05-07T08:53:47;25.65;;;19.20;;
52708;SDS011;38606;52.986;6.980;2023-05-07T08:56:14;23.75;;;17.77;;
52708;SDS011;38606;52.986;6.980;2023-05-07T08:58:43;23.85;;;18.58;;
52708;SDS011;38606;52.986;6.980;2023-05-07T09:01:10;23.25;;;18.20;;
52708;SDS011;38606;52.986;6.980;2023-05-07T09:03:40;22.20;;;17.52;;
52708;SDS011;38606;52.986;6.980;2023-05-07T09:06:06;23.25;;;18.13;;
52708;SDS011;38606;52.986;6.980;2023-05-07T09:08:33;22.63;;;17.60;;
52708;SDS011;38606;52.986;6.980;2023-05-07T09:10:59;21.52;;;17.52;;
52708;SDS011;38606;52.986;6.980;2023-05-07T09:13:26;22.58;;;17.55;;
52708;SDS011;38606;52.986;6.980;2023-05-07T09:15:52;22.90;;;17.65;;
52708;SDS011;38606;52.986;6.980;2023-05-07T09:18:18;23.35;;;18.33;;
52708;SDS011;38606;52.986;6.980;2023-05-07T09:20:44;22.33;;;17.45;;
52708;SDS011;38606;52.986;6.980;2023-05-07T09:23:09;26.25;;;17.65;;
52708;SDS011;38606;52.986;6.980;2023-05-07T09:25:35;23.75;;;17.70;;
52708;SDS011;38606;52.986;6.980;2023-05-07T09:28:02;23.80;;;17.23;;
52708;SDS011;38606;52.986;6.980;2023-05-07T09:30:30;24.30;;;16.90;;
52708;SDS011;38606;52.986;6.980;2023-05-07T09:33:00;20.55;;;16.38;;
52708;SDS011;38606;52.986;6.980;2023-05-07T09:35:27;21.77;;;17.40;;
52708;SDS011;38606;52.986;6.980;2023-05-07T09:37:58;23.70;;;16.42;;
52708;SDS011;38606;52.986;6.980;2023-05-07T09:40:26;18.15;;;14.63;;
52708;SDS011;38606;52.986;6.980;2023-05-07T09:42:53;19.50;;;15.57;;
52708;SDS011;38606;52.986;6.980;2023-05-07T09:45:26;21.30;;;14.52;;
52708;SDS011;38606;52.986;6.980;2023-05-07T09:47:54;18.67;;;14.80;;
52708;SDS011;38606;52.986;6.980;2023-05-07T09:50:29;18.13;;;15.38;;
52708;SDS011;38606;52.986;6.980;2023-05-07T09:52:57;19.00;;;15.77;;
52708;SDS011;38606;52.986;6.980;2023-05-07T09:55:23;23.88;;;15.63;;
52708;SDS011;38606;52.986;6.980;2023-05-07T09:57:50;20.45;;;15.30;;
52708;SDS011;38606;52.986;6.980;2023-05-07T10:00:20;18.33;;;15.57;;
52708;SDS011;38606;52.986;6.980;2023-05-07T10:02:47;20.33;;;15.15;;
52708;SDS011;38606;52.986;6.980;2023-05-07T10:05:14;20.48;;;15.23;;
52708;SDS011;38606;52.986;6.980;2023-05-07T10:07:41;20.83;;;15.13;;
52708;SDS011;38606;52.986;6.980;2023-05-07T10:10:08;17.27;;;13.88;;
52708;SDS011;38606;52.986;6.980;2023-05-07T10:12:34;21.80;;;14.52;;
52708;SDS011;38606;52.986;6.980;2023-05-07T10:15:13;18.52;;;14.93;;
52708;SDS011;38606;52.986;6.980;2023-05-07T10:17:39;21.20;;;16.13;;
52708;SDS011;38606;52.986;6.980;2023-05-07T10:20:06;16.95;;;13.80;;
52708;SDS011;38606;52.986;6.980;2023-05-07T10:22:43;18.38;;;14.77;;
52708;SDS011;38606;52.986;6.980;2023-05-07T10:25:14;18.65;;;15.35;;
52708;SDS011;38606;52.986;6.980;2023-05-07T10:27:53;17.90;;;14.48;;
52708;SDS011;38606;52.986;6.980;2023-05-07T10:32:56;17.05;;;14.48;;
52708;SDS011;38606;52.986;6.980;2023-05-07T10:35:31;18.08;;;13.68;;
52708;SDS011;38606;52.986;6.980;2023-05-07T10:38:03;17.65;;;13.73;;
52708;SDS011;38606;52.986;6.980;2023-05-07T10:40:30;18.40;;;14.88;;
52708;SDS011;38606;52.986;6.980;2023-05-07T10:42:56;16.60;;;14.45;;
52708;SDS011;38606;52.986;6.980;2023-05-07T10:45:27;17.55;;;14.40;;
52708;SDS011;38606;52.986;6.980;2023-05-07T10:48:08;17.80;;;14.38;;
52708;SDS011;38606;52.986;6.980;2023-05-07T10:50:41;16.45;;;13.70;;
52708;SDS011;38606;52.986;6.980;2023-05-07T10:55:47;16.13;;;14.07;;
52708;SDS011;38606;52.986;6.980;2023-05-07T10:58:22;16.17;;;14.13;;
52708;SDS011;38606;52.986;6.980;2023-05-07T11:00:50;15.20;;;13.60;;
52708;SDS011;38606;52.986;6.980;2023-05-07T11:03:21;15.23;;;13.63;;
52708;SDS011;38606;52.986;6.980;2023-05-07T11:05:47;19.98;;;13.25;;
52708;SDS011;38606;52.986;6.980;2023-05-07T11:08:52;16.58;;;13.43;;
52708;SDS011;38606;52.986;6.980;2023-05-07T11:11:17;16.88;;;14.10;;
52708;SDS011;38606;52.986;6.980;2023-05-07T11:13:47;15.80;;;13.05;;
52708;SDS011;38606;52.986;6.980;2023-05-07T11:16:17;14.73;;;13.05;;
52708;SDS011;38606;52.986;6.980;2023-05-07T11:18:48;17.35;;;12.77;;
52708;SDS011;38606;52.986;6.980;2023-05-07T11:21:31;16.23;;;13.20;;
52708;SDS011;38606;52.986;6.980;2023-05-07T11:24:00;15.95;;;13.18;;
52708;SDS011;38606;52.986;6.980;2023-05-07T11:26:28;18.20;;;14.68;;
52708;SDS011;38606;52.986;6.980;2023-05-07T11:29:20;15.73;;;13.25;;
52708;SDS011;38606;52.986;6.980;2023-05-07T11:34:23;16.58;;;12.45;;
52708;SDS011;38606;52.986;6.980;2023-05-07T11:36:50;18.17;;;14.27;;
52708;SDS011;38606;52.986;6.980;2023-05-07T11:39:26;15.38;;;13.00;;
52708;SDS011;38606;52.986;6.980;2023-05-07T11:41:53;14.35;;;12.85;;
52708;SDS011;38606;52.986;6.980;2023-05-07T11:44:19;14.95;;;13.20;;
52708;SDS011;38606;52.986;6.980;2023-05-07T11:46:45;15.50;;;12.50;;
52708;SDS011;38606;52.986;6.980;2023-05-07T11:49:11;16.00;;;12.82;;
52708;SDS011;38606;52.986;6.980;2023-05-07T11:51:36;15.00;;;13.50;;
52708;SDS011;38606;52.986;6.980;2023-05-07T11:54:04;14.55;;;12.13;;
52708;SDS011;38606;52.986;6.980;2023-05-07T11:56:33;14.60;;;12.70;;
52708;SDS011;38606;52.986;6.980;2023-05-07T11:59:00;14.70;;;12.43;;
52708;SDS011;38606;52.986;6.980;2023-05-07T12:01:26;17.50;;;12.55;;
52708;SDS011;38606;52.986;6.980;2023-05-07T12:03:52;17.48;;;12.93;;
52708;SDS011;38606;52.986;6.980;2023-05-07T12:06:18;125.85;;;15.18;;
52708;SDS011;38606;52.986;6.980;2023-05-07T12:08:44;14.77;;;11.65;;
52708;SDS011;38606;52.986;6.980;2023-05-07T12:11:15;13.88;;;12.35;;
52708;SDS011;38606;52.986;6.980;2023-05-07T12:13:46;14.93;;;12.80;;
52708;SDS011;38606;52.986;6.980;2023-05-07T12:16:12;13.38;;;11.98;;
52708;SDS011;38606;52.986;6.980;2023-05-07T12:18:38;18.75;;;12.68;;
52708;SDS011;38606;52.986;6.980;2023-05-07T12:21:05;14.25;;;12.23;;
52708;SDS011;38606;52.986;6.980;2023-05-07T12:23:31;13.13;;;11.73;;
52708;SDS011;38606;52.986;6.980;2023-05-07T12:25:59;13.18;;;11.40;;
52708;SDS011;38606;52.986;6.980;2023-05-07T12:28:25;14.10;;;12.23;;
52708;SDS011;38606;52.986;6.980;2023-05-07T12:30:50;12.48;;;11.18;;
52708;SDS011;38606;52.986;6.980;2023-05-07T12:33:18;12.45;;;11.15;;
52708;SDS011;38606;52.986;6.980;2023-05-07T12:35:48;14.25;;;11.90;;
52708;SDS011;38606;52.986;6.980;2023-05-07T12:38:14;12.75;;;11.45;;
52708;SDS011;38606;52.986;6.980;2023-05-07T12:40:46;12.75;;;11.45;;
52708;SDS011;38606;52.986;6.980;2023-05-07T12:43:16;13.43;;;11.60;;
52708;SDS011;38606;52.986;6.980;2023-05-07T12:45:43;12.85;;;11.25;;
52708;SDS011;38606;52.986;6.980;2023-05-07T12:48:10;12.52;;;11.23;;
52708;SDS011;38606;52.986;6.980;2023-05-07T12:50:36;12.23;;;11.02;;
52708;SDS011;38606;52.986;6.980;2023-05-07T12:53:05;13.15;;;11.68;;
52708;SDS011;38606;52.986;6.980;2023-05-07T12:55:39;13.52;;;12.13;;
52708;SDS011;38606;52.986;6.980;2023-05-07T12:58:06;13.88;;;12.35;;
52708;SDS011;38606;52.986;6.980;2023-05-07T13:00:34;12.48;;;11.27;;
52708;SDS011;38606;52.986;6.980;2023-05-07T13:03:01;12.45;;;11.27;;
52708;SDS011;38606;52.986;6.980;2023-05-07T13:05:27;12.20;;;10.90;;
52708;SDS011;38606;52.986;6.980;2023-05-07T13:07:53;12.52;;;11.20;;
52708;SDS011;38606;52.986;6.980;2023-05-07T13:10:21;11.68;;;10.52;;
52708;SDS011;38606;52.986;6.980;2023-05-07T13:12:48;12.70;;;11.40;;
52708;SDS011;38606;52.986;6.980;2023-05-07T13:15:14;11.30;;;10.10;;
52708;SDS011;38606;52.986;6.980;2023-05-07T13:17:40;11.38;;;10.25;;
52708;SDS011;38606;52.986;6.980;2023-05-07T13:20:06;11.65;;;10.45;;
52708;SDS011;38606;52.986;6.980;2023-05-07T13:22:34;11.60;;;9.65;;
52708;SDS011;38606;52.986;6.980;2023-05-07T13:24:59;11.75;;;10.65;;
52708;SDS011;38606;52.986;6.980;2023-05-07T13:27:25;12.48;;;10.85;;
52708;SDS011;38606;52.986;6.980;2023-05-07T13:29:51;10.48;;;9.38;;
52708;SDS011;38606;52.986;6.980;2023-05-07T13:32:17;11.93;;;9.60;;
52708;SDS011;38606;52.986;6.980;2023-05-07T13:34:43;11.60;;;9.38;;
52708;SDS011;38606;52.986;6.980;2023-05-07T13:37:08;12.02;;;10.18;;
52708;SDS011;38606;52.986;6.980;2023-05-07T13:39:34;11.40;;;9.63;;
52708;SDS011;38606;52.986;6.980;2023-05-07T13:42:00;11.50;;;10.40;;
52708;SDS011;38606;52.986;6.980;2023-05-07T13:44:26;9.88;;;8.88;;
52708;SDS011;38606;52.986;6.980;2023-05-07T13:46:52;11.02;;;9.93;;
52708;SDS011;38606;52.986;6.980;2023-05-07T13:49:17;11.35;;;10.25;;
52708;SDS011;38606;52.986;6.980;2023-05-07T13:51:43;11.07;;;9.93;;
52708;SDS011;38606;52.986;6.980;2023-05-07T13:54:09;11.63;;;10.52;;
52708;SDS011;38606;52.986;6.980;2023-05-07T13:56:35;13.68;;;10.77;;
52708;SDS011;38606;52.986;6.980;2023-05-07T13:59:01;12.00;;;10.90;;
52708;SDS011;38606;52.986;6.980;2023-05-07T14:01:27;12.60;;;11.30;;
52708;SDS011;38606;52.986;6.980;2023-05-07T14:03:53;13.20;;;11.90;;
52708;SDS011;38606;52.986;6.980;2023-05-07T14:06:18;13.10;;;11.77;;
52708;SDS011;38606;52.986;6.980;2023-05-07T14:08:44;13.88;;;11.32;;
52708;SDS011;38606;52.986;6.980;2023-05-07T14:11:10;11.45;;;10.35;;
52708;SDS011;38606;52.986;6.980;2023-05-07T14:13:36;12.07;;;10.85;;
52708;SDS011;38606;52.986;6.980;2023-05-07T14:16:02;12.23;;;11.02;;
52708;SDS011;38606;52.986;6.980;2023-05-07T14:18:29;15.77;;;11.65;;
52708;SDS011;38606;52.986;6.980;2023-05-07T14:20:54;12.00;;;10.82;;
52708;SDS011;38606;52.986;6.980;2023-05-07T14:23:20;13.48;;;12.07;;
52708;SDS011;38606;52.986;6.980;2023-05-07T14:25:51;13.52;;;12.15;;